Time;durP1;ratioP1;P1;durP2;ratioP2;P2;SDS_P1;SDS_P2;PMS_P1;PMS_P2;Temp;Humidity;BMP_temperature;BMP_pressure;BME280_temperature;BME280_humidity;BME280_pressure;Samples;Min_cycle;Max_cycle;Signal;HPM_P1;HPM_P2
2022/12/29 00:02:14;;;;;;;8.05;4.20;;;;;;;;;;5042920;28;20613;-78
2022/12/29 00:04:44;;;;;;;4.68;2.80;;;;;;;;;;5040741;28;20040;-77
2022/12/29 00:07:10;;;;;;;6.18;3.05;;;;;;;;;;5053661;28;20518;-78
2022/12/29 00:09:37;;;;;;;6.13;2.55;;;;;;;;;;5046288;28;20475;-80
2022/12/29 00:12:04;;;;;;;3.83;2.58;;;;;;;;;;5045611;28;20025;-78
2022/12/29 00:17:15;;;;;;;4.32;2.35;;;;;;;;;;5049924;28;20135;-78
2022/12/29 00:36:17;;;;;;;4.85;2.72;;;;;;;;;;5041118;28;20044;-78
2022/12/29 00:44:17;;;;;;;4.50;2.50;;;;;;;;;;5050124;28;20056;-77
2022/12/29 00:46:43;;;;;;;4.22;2.28;;;;;;;;;;5054630;28;20017;-80
2022/12/29 00:51:55;;;;;;;;;;;;;;;;;;5056769;28;20301;-77
2022/12/29 00:54:21;;;;;;;;;;;;;;;;;;5055780;28;20386;-76
2022/12/29 00:56:48;;;;;;;7.38;3.42;;;;;;;;;;5051534;28;20238;-78
2022/12/29 00:59:14;;;;;;;4.55;2.42;;;;;;;;;;5052919;28;20120;-78
2022/12/29 01:01:41;;;;;;;2.35;2.00;;;;;;;;;;5038634;28;20346;-79
2022/12/29 01:04:07;;;;;;;5.35;1.88;;;;;;;;;;5045914;28;20021;-78
2022/12/29 01:06:34;;;;;;;6.75;2.10;;;;;;;;;;5050597;28;20039;-78
2022/12/29 01:11:44;;;;;;;2.63;1.80;;;;;;;;;;5037451;28;20036;-77
2022/12/29 01:14:11;;;;;;;3.30;2.03;;;;;;;;;;5046601;28;20022;-77
2022/12/29 01:16:37;;;;;;;5.07;2.03;;;;;;;;;;5052044;28;20028;-79
2022/12/29 01:19:03;;;;;;;7.07;2.30;;;;;;;;;;5053907;28;20598;-78
2022/12/29 01:21:30;;;;;;;6.05;1.90;;;;;;;;;;5044008;28;20488;-78
2022/12/29 01:23:56;;;;;;;3.45;1.88;;;;;;;;;;5049423;28;20095;-78
2022/12/29 01:26:22;;;;;;;3.72;1.73;;;;;;;;;;5048535;28;20464;-78
2022/12/29 01:28:48;;;;;;;3.15;1.80;;;;;;;;;;5051433;28;20028;-78
2022/12/29 01:31:15;;;;;;;3.28;2.00;;;;;;;;;;5053926;28;20025;-78
2022/12/29 01:33:42;;;;;;;4.78;2.20;;;;;;;;;;5036941;28;20029;-78
2022/12/29 01:36:09;;;;;;;3.67;2.38;;;;;;;;;;5055680;28;20028;-78
2022/12/29 01:38:36;;;;;;;4.97;2.15;;;;;;;;;;5048734;28;20029;-78
2022/12/29 01:41:06;;;;;;;3.85;3.33;;;;;;;;;;5051564;28;20029;-79
2022/12/29 01:43:44;;;;;;;4.32;2.15;;;;;;;;;;5046258;28;20037;-79
2022/12/29 01:46:34;;;;;;;3.83;1.83;;;;;;;;;;5049264;28;20017;-78
2022/12/29 01:49:00;;;;;;;6.47;2.10;;;;;;;;;;5038603;28;20041;-77
2022/12/29 01:51:29;;;;;;;5.40;2.28;;;;;;;;;;5052733;28;20037;-78
2022/12/29 01:54:06;;;;;;;4.10;1.90;;;;;;;;;;5046742;28;20025;-78
2022/12/29 01:56:32;;;;;;;3.22;2.15;;;;;;;;;;5051791;28;20355;-78
2022/12/29 01:59:04;;;;;;;6.50;2.53;;;;;;;;;;5051012;28;20033;-77
2022/12/29 02:01:33;;;;;;;5.38;2.20;;;;;;;;;;5058107;28;20021;-77
2022/12/29 02:04:00;;;;;;;5.68;2.20;;;;;;;;;;5050068;28;20098;-78
2022/12/29 02:06:29;;;;;;;5.88;2.13;;;;;;;;;;5050099;28;20429;-80
2022/12/29 02:08:55;;;;;;;5.20;2.72;;;;;;;;;;5051373;28;20013;-79
2022/12/29 02:11:22;;;;;;;2.33;1.83;;;;;;;;;;5052870;28;20077;-78
2022/12/29 02:13:48;;;;;;;2.47;1.70;;;;;;;;;;5036748;28;20021;-77
2022/12/29 02:16:18;;;;;;;4.25;1.92;;;;;;;;;;5064567;28;20025;-78
2022/12/29 02:19:02;;;;;;;3.80;1.75;;;;;;;;;;5052744;28;20036;-78
2022/12/29 02:21:47;;;;;;;5.93;1.92;;;;;;;;;;5037748;28;20103;-79
2022/12/29 02:24:16;;;;;;;6.57;2.40;;;;;;;;;;5049335;28;20032;-77
2022/12/29 02:26:48;;;;;;;4.50;2.03;;;;;;;;;;5048109;28;20067;-76
2022/12/29 02:29:35;;;;;;;5.70;1.80;;;;;;;;;;5044905;28;20070;-77
2022/12/29 02:32:04;;;;;;;3.95;1.98;;;;;;;;;;5043318;28;20056;-77
2022/12/29 02:34:53;;;;;;;6.30;1.95;;;;;;;;;;5042257;28;20452;-77
2022/12/29 02:37:19;;;;;;;5.75;2.03;;;;;;;;;;5041632;28;20056;-78
2022/12/29 02:39:57;;;;;;;3.03;2.05;;;;;;;;;;5048714;28;20267;-77
2022/12/29 02:42:31;;;;;;;2.90;2.10;;;;;;;;;;5055961;28;20362;-78
2022/12/29 02:44:57;;;;;;;7.63;2.17;;;;;;;;;;5052317;28;20033;-77
2022/12/29 02:47:23;;;;;;;4.53;2.20;;;;;;;;;;5046182;28;20017;-78
2022/12/29 02:50:10;;;;;;;4.05;1.80;;;;;;;;;;5049025;28;20159;-78
2022/12/29 02:52:44;;;;;;;4.53;2.42;;;;;;;;;;5045836;28;20032;-78
2022/12/29 02:55:11;;;;;;;8.50;2.47;;;;;;;;;;5046581;28;20074;-76
2022/12/29 02:57:38;;;;;;;6.85;2.03;;;;;;;;;;5048092;28;20101;-81
2022/12/29 03:00:08;;;;;;;2.90;1.70;;;;;;;;;;5046114;28;20058;-78
2022/12/29 03:02:53;;;;;;;4.43;2.83;;;;;;;;;;5050636;28;20024;-78
2022/12/29 03:05:26;;;;;;;2.75;1.60;;;;;;;;;;5044972;28;20044;-77
2022/12/29 03:07:52;;;;;;;5.15;2.50;;;;;;;;;;5047352;28;20018;-77
2022/12/29 03:10:38;;;;;;;4.30;1.90;;;;;;;;;;5051496;28;20076;-78
2022/12/29 03:16:07;;;;;;;2.03;1.48;;;;;;;;;;5041700;28;20040;-78
2022/12/29 03:18:33;;;;;;;2.40;1.50;;;;;;;;;;5056511;28;20027;-78
2022/12/29 03:21:05;;;;;;;3.22;1.60;;;;;;;;;;5050604;28;20081;-77
2022/12/29 03:23:32;;;;;;;3.03;1.48;;;;;;;;;;5045553;28;20064;-77
2022/12/29 03:26:01;;;;;;;5.35;1.52;;;;;;;;;;5049020;28;20116;-78
2022/12/29 03:28:34;;;;;;;3.13;1.92;;;;;;;;;;5051918;28;20568;-77
2022/12/29 03:31:01;;;;;;;2.35;1.83;;;;;;;;;;5036015;28;20033;-77
2022/12/29 03:33:28;;;;;;;2.72;1.40;;;;;;;;;;5045070;28;20375;-79
2022/12/29 03:35:59;;;;;;;5.70;2.13;;;;;;;;;;5056118;28;20067;-77
2022/12/29 03:38:31;;;;;;;4.85;1.90;;;;;;;;;;5059080;28;20415;-78
2022/12/29 03:40:59;;;;;;;6.05;2.00;;;;;;;;;;5045737;28;20108;-78
2022/12/29 03:43:25;;;;;;;4.72;1.45;;;;;;;;;;5053919;28;20525;-78
2022/12/29 03:45:51;;;;;;;2.28;1.67;;;;;;;;;;5047001;28;20021;-77
2022/12/29 03:48:18;;;;;;;8.20;1.75;;;;;;;;;;5048383;28;20028;-78
2022/12/29 03:50:44;;;;;;;1.73;1.63;;;;;;;;;;5052886;28;20025;-75
2022/12/29 03:53:10;;;;;;;7.35;1.60;;;;;;;;;;5054281;28;20024;-79
2022/12/29 03:55:36;;;;;;;2.90;1.90;;;;;;;;;;5048309;28;20025;-79
2022/12/29 03:58:02;;;;;;;3.92;2.75;;;;;;;;;;5044491;28;20106;-78
2022/12/29 04:00:29;;;;;;;6.68;2.10;;;;;;;;;;5043605;28;20029;-78
2022/12/29 04:02:55;;;;;;;7.72;2.40;;;;;;;;;;5048121;28;20028;-77
2022/12/29 04:05:21;;;;;;;2.72;1.70;;;;;;;;;;5039717;28;20388;-77
2022/12/29 04:07:47;;;;;;;2.45;1.67;;;;;;;;;;5042140;28;20071;-77
2022/12/29 04:10:13;;;;;;;6.55;1.70;;;;;;;;;;5067032;28;20107;-79
2022/12/29 04:12:41;;;;;;;8.25;1.90;;;;;;;;;;5044089;28;20548;-78
2022/12/29 04:15:08;;;;;;;4.63;2.05;;;;;;;;;;5052046;28;20385;-77
2022/12/29 04:17:34;;;;;;;5.90;2.03;;;;;;;;;;5051751;28;20021;-78
2022/12/29 04:23:18;;;;;;;4.65;2.20;;;;;;;;;;5052554;28;20068;-78
2022/12/29 04:25:46;;;;;;;4.78;1.85;;;;;;;;;;5029260;28;20446;-78
2022/12/29 04:28:16;;;;;;;4.82;2.50;;;;;;;;;;5046535;28;20041;-77
2022/12/29 04:30:43;;;;;;;5.05;1.70;;;;;;;;;;5047511;28;20021;-76
2022/12/29 04:33:10;;;;;;;9.52;2.80;;;;;;;;;;5053330;28;20024;-77
2022/12/29 04:35:36;;;;;;;7.47;1.98;;;;;;;;;;5052447;28;20017;-78
2022/12/29 04:38:02;;;;;;;7.32;2.28;;;;;;;;;;5055133;28;20024;-77
2022/12/29 04:40:28;;;;;;;9.68;2.30;;;;;;;;;;5066357;28;20025;-77
2022/12/29 04:42:57;;;;;;;6.07;2.05;;;;;;;;;;5049375;28;20036;-77
2022/12/29 04:45:23;;;;;;;8.55;3.25;;;;;;;;;;5054662;28;20009;-77
2022/12/29 04:47:49;;;;;;;6.30;2.50;;;;;;;;;;5043763;28;20032;-78
2022/12/29 04:50:15;;;;;;;7.60;2.72;;;;;;;;;;5047236;28;20024;-76
2022/12/29 04:52:48;;;;;;;9.35;2.83;;;;;;;;;;5056689;28;20025;-77
2022/12/29 04:55:15;;;;;;;9.70;3.17;;;;;;;;;;5058803;28;20467;-76
2022/12/29 04:57:41;;;;;;;5.35;2.13;;;;;;;;;;5051425;28;20055;-77
2022/12/29 05:00:08;;;;;;;5.32;2.10;;;;;;;;;;5044469;28;20021;-77
2022/12/29 05:02:35;;;;;;;8.55;2.00;;;;;;;;;;5052717;28;20052;-77
2022/12/29 05:05:02;;;;;;;6.93;2.53;;;;;;;;;;5053989;28;20017;-78
2022/12/29 05:07:29;;;;;;;6.75;2.80;;;;;;;;;;5039635;28;20017;-78
2022/12/29 05:09:55;;;;;;;4.75;2.22;;;;;;;;;;5047276;28;20036;-77
2022/12/29 05:12:21;;;;;;;4.93;2.10;;;;;;;;;;5054501;28;20032;-79
2022/12/29 05:14:47;;;;;;;7.78;3.20;;;;;;;;;;5042521;28;20543;-78
2022/12/29 05:17:14;;;;;;;4.10;2.15;;;;;;;;;;5037786;28;20033;-78
2022/12/29 05:19:40;;;;;;;5.88;2.28;;;;;;;;;;5049847;28;20048;-77
2022/12/29 05:22:06;;;;;;;9.00;1.88;;;;;;;;;;5052221;28;20039;-77
2022/12/29 05:24:32;;;;;;;8.45;2.13;;;;;;;;;;5052909;28;20042;-77
2022/12/29 05:27:01;;;;;;;3.83;1.83;;;;;;;;;;5049460;28;20109;-77
2022/12/29 05:29:27;;;;;;;5.43;2.05;;;;;;;;;;5048129;28;20010;-78
2022/12/29 05:31:54;;;;;;;7.18;2.72;;;;;;;;;;5051960;28;20025;-77
2022/12/29 05:34:20;;;;;;;6.35;1.98;;;;;;;;;;5059611;28;20028;-78
2022/12/29 05:36:46;;;;;;;3.65;1.77;;;;;;;;;;5036390;28;20088;-78
2022/12/29 05:39:12;;;;;;;8.23;2.03;;;;;;;;;;5049783;28;20072;-78
2022/12/29 05:41:38;;;;;;;3.33;1.80;;;;;;;;;;5045823;28;20396;-77
2022/12/29 05:44:04;;;;;;;7.15;2.33;;;;;;;;;;5050381;28;20033;-77
2022/12/29 05:46:30;;;;;;;7.07;2.20;;;;;;;;;;5050434;28;20022;-78
2022/12/29 05:48:57;;;;;;;8.30;2.70;;;;;;;;;;5037152;28;20032;-77
2022/12/29 05:51:24;;;;;;;4.50;1.92;;;;;;;;;;5057438;28;20063;-78
2022/12/29 05:53:50;;;;;;;10.00;2.00;;;;;;;;;;5049314;28;20025;-77
2022/12/29 05:56:16;;;;;;;9.25;2.00;;;;;;;;;;5051118;28;20116;-78
2022/12/29 05:58:42;;;;;;;6.78;2.08;;;;;;;;;;5050035;28;20020;-77
2022/12/29 06:01:08;;;;;;;6.20;2.38;;;;;;;;;;5056607;28;20105;-78
2022/12/29 06:03:34;;;;;;;8.20;2.08;;;;;;;;;;5047109;28;20033;-77
2022/12/29 06:06:00;;;;;;;5.68;2.88;;;;;;;;;;5050353;28;20029;-79
2022/12/29 06:08:27;;;;;;;6.82;2.05;;;;;;;;;;5035913;28;20052;-77
2022/12/29 06:10:53;;;;;;;6.47;2.13;;;;;;;;;;5045982;28;20081;-77
2022/12/29 06:13:19;;;;;;;8.52;2.13;;;;;;;;;;5053749;28;20371;-76
2022/12/29 06:15:45;;;;;;;5.13;2.10;;;;;;;;;;5051878;28;20040;-78
2022/12/29 06:18:11;;;;;;;4.22;1.70;;;;;;;;;;5043765;28;20027;-77
2022/12/29 06:20:37;;;;;;;6.55;2.17;;;;;;;;;;5045730;28;20020;-78
2022/12/29 06:23:03;;;;;;;7.57;2.05;;;;;;;;;;5055858;28;20021;-78
2022/12/29 06:25:32;;;;;;;7.22;2.28;;;;;;;;;;5050358;28;20049;-79
2022/12/29 06:27:58;;;;;;;10.52;2.22;;;;;;;;;;5045272;28;20120;-77
2022/12/29 06:30:25;;;;;;;7.22;2.33;;;;;;;;;;5052191;28;20053;-77
2022/12/29 06:32:51;;;;;;;4.65;2.38;;;;;;;;;;5050467;28;20071;-77
2022/12/29 06:35:17;;;;;;;7.07;2.92;;;;;;;;;;5042668;28;20029;-78
2022/12/29 06:37:44;;;;;;;4.60;1.83;;;;;;;;;;5053156;28;20048;-76
2022/12/29 06:40:11;;;;;;;8.43;2.20;;;;;;;;;;5048174;28;20028;-76
2022/12/29 06:42:38;;;;;;;4.57;2.25;;;;;;;;;;5049424;28;20028;-75
2022/12/29 06:45:04;;;;;;;7.93;2.50;;;;;;;;;;5051550;28;20465;-77
2022/12/29 06:47:31;;;;;;;6.93;2.17;;;;;;;;;;5043578;28;20029;-77
2022/12/29 06:49:57;;;;;;;8.10;2.70;;;;;;;;;;5038469;28;20495;-78
2022/12/29 06:52:24;;;;;;;10.18;2.67;;;;;;;;;;5058718;28;20020;-77
2022/12/29 06:54:50;;;;;;;16.75;3.13;;;;;;;;;;5045541;28;20092;-78
2022/12/29 06:57:16;;;;;;;4.93;2.38;;;;;;;;;;5048357;28;20029;-78
2022/12/29 06:59:42;;;;;;;9.30;2.58;;;;;;;;;;5042482;28;20120;-78
2022/12/29 07:02:10;;;;;;;9.57;2.78;;;;;;;;;;5039718;28;20049;-78
2022/12/29 07:04:36;;;;;;;5.65;2.40;;;;;;;;;;5051012;28;20258;-78
2022/12/29 07:07:02;;;;;;;4.68;2.63;;;;;;;;;;5045785;28;20476;-78
2022/12/29 07:09:28;;;;;;;11.27;2.72;;;;;;;;;;5046888;28;20032;-78
2022/12/29 07:11:58;;;;;;;7.38;2.55;;;;;;;;;;5050659;28;20060;-77
2022/12/29 07:14:24;;;;;;;9.27;2.95;;;;;;;;;;5069837;28;20099;-78
2022/12/29 07:16:50;;;;;;;14.10;3.30;;;;;;;;;;5049229;28;20041;-77
2022/12/29 07:19:16;;;;;;;5.60;1.83;;;;;;;;;;5042227;28;20037;-77
2022/12/29 07:21:43;;;;;;;6.18;1.75;;;;;;;;;;5050245;28;20032;-77
2022/12/29 07:24:10;;;;;;;6.90;2.75;;;;;;;;;;5046988;28;20029;-77
2022/12/29 07:26:36;;;;;;;4.90;2.50;;;;;;;;;;5051863;28;20090;-78
2022/12/29 07:29:05;;;;;;;10.20;3.00;;;;;;;;;;5051508;28;20032;-75
2022/12/29 07:31:32;;;;;;;6.85;2.75;;;;;;;;;;5050434;28;20534;-78
2022/12/29 07:33:59;;;;;;;9.68;3.13;;;;;;;;;;5051168;28;20064;-76
2022/12/29 07:36:25;;;;;;;10.38;3.58;;;;;;;;;;5045563;28;20059;-77
2022/12/29 07:38:52;;;;;;;9.40;2.80;;;;;;;;;;5045265;28;20060;-78
2022/12/29 07:41:18;;;;;;;7.38;2.60;;;;;;;;;;5038127;28;20033;-78
2022/12/29 07:43:47;;;;;;;10.00;2.85;;;;;;;;;;5041451;28;20479;-77
2022/12/29 07:46:14;;;;;;;8.18;2.75;;;;;;;;;;5051707;28;20055;-78
2022/12/29 07:48:40;;;;;;;9.98;2.80;;;;;;;;;;5043416;28;20028;-78
2022/12/29 07:51:06;;;;;;;10.57;2.83;;;;;;;;;;5058309;28;20254;-78
2022/12/29 07:53:32;;;;;;;5.75;2.45;;;;;;;;;;5038944;28;20047;-78
2022/12/29 07:55:58;;;;;;;5.20;2.30;;;;;;;;;;5041764;28;20025;-78
2022/12/29 07:58:24;;;;;;;7.03;2.88;;;;;;;;;;5034783;28;20029;-78
2022/12/29 08:00:54;;;;;;;6.22;3.17;;;;;;;;;;5048049;28;20041;-77
2022/12/29 08:03:21;;;;;;;6.22;2.33;;;;;;;;;;5042066;28;20475;-78
2022/12/29 08:05:47;;;;;;;11.25;2.45;;;;;;;;;;5044916;28;20508;-78
2022/12/29 08:08:13;;;;;;;7.13;2.30;;;;;;;;;;5044918;28;20032;-78
2022/12/29 08:10:39;;;;;;;7.47;2.20;;;;;;;;;;5048521;28;20482;-76
2022/12/29 08:13:05;;;;;;;5.47;2.60;;;;;;;;;;5047998;28;20117;-77
2022/12/29 08:15:31;;;;;;;8.27;2.10;;;;;;;;;;5040436;28;20032;-79
2022/12/29 08:17:57;;;;;;;5.18;2.22;;;;;;;;;;5042000;28;20052;-78
2022/12/29 08:20:23;;;;;;;3.95;2.13;;;;;;;;;;5039707;28;20116;-77
2022/12/29 08:22:49;;;;;;;3.17;1.88;;;;;;;;;;5052435;28;20036;-77
2022/12/29 08:25:16;;;;;;;8.63;2.25;;;;;;;;;;5048753;28;20041;-78
2022/12/29 08:27:42;;;;;;;6.30;2.67;;;;;;;;;;5039818;28;20045;-78
2022/12/29 08:30:11;;;;;;;9.70;2.25;;;;;;;;;;5054572;28;20523;-76
2022/12/29 08:32:37;;;;;;;7.35;2.35;;;;;;;;;;5050896;28;20090;-78
2022/12/29 08:35:04;;;;;;;5.32;2.25;;;;;;;;;;5037055;28;20067;-79
2022/12/29 08:37:33;;;;;;;5.18;2.03;;;;;;;;;;5049048;28;20384;-77
2022/12/29 08:40:03;;;;;;;7.18;3.13;;;;;;;;;;5054062;28;20037;-79
2022/12/29 08:42:30;;;;;;;5.65;2.47;;;;;;;;;;5051673;28;20021;-78
2022/12/29 08:44:57;;;;;;;6.30;2.50;;;;;;;;;;5039959;28;20414;-78
2022/12/29 08:47:23;;;;;;;4.10;1.98;;;;;;;;;;5048282;28;20029;-78
2022/12/29 08:49:49;;;;;;;3.90;2.60;;;;;;;;;;5047467;28;20473;-77
2022/12/29 08:52:15;;;;;;;8.27;2.35;;;;;;;;;;5046248;28;20056;-78
2022/12/29 08:54:41;;;;;;;14.07;3.22;;;;;;;;;;5039988;28;20550;-77
2022/12/29 08:57:07;;;;;;;10.50;2.42;;;;;;;;;;5046374;28;20048;-78
2022/12/29 08:59:33;;;;;;;3.50;1.85;;;;;;;;;;5046608;28;20021;-78
2022/12/29 09:02:01;;;;;;;3.92;2.35;;;;;;;;;;5043772;28;20111;-78
2022/12/29 09:04:27;;;;;;;6.20;2.22;;;;;;;;;;5046036;28;20047;-78
2022/12/29 09:06:54;;;;;;;9.98;2.65;;;;;;;;;;5052562;28;20025;-78
2022/12/29 09:09:20;;;;;;;4.55;2.13;;;;;;;;;;5048872;28;20029;-78
2022/12/29 09:11:47;;;;;;;4.55;2.00;;;;;;;;;;5048052;28;20025;-77
2022/12/29 09:14:14;;;;;;;7.03;2.15;;;;;;;;;;5050971;28;20026;-78
2022/12/29 09:19:25;;;;;;;6.50;2.40;;;;;;;;;;5043886;28;20076;-79
2022/12/29 09:21:51;;;;;;;5.05;2.35;;;;;;;;;;5044379;28;20031;-78
2022/12/29 09:24:18;;;;;;;7.35;2.45;;;;;;;;;;5043546;28;20505;-78
2022/12/29 09:26:44;;;;;;;6.05;2.30;;;;;;;;;;5041664;28;20055;-77
2022/12/29 09:29:10;;;;;;;3.67;1.98;;;;;;;;;;5044102;28;20443;-77
2022/12/29 09:31:36;;;;;;;4.63;2.38;;;;;;;;;;5044319;28;20037;-77
2022/12/29 09:34:02;;;;;;;8.25;2.17;;;;;;;;;;5053226;28;20036;-77
2022/12/29 09:36:34;;;;;;;8.93;2.15;;;;;;;;;;5053014;28;20036;-77
2022/12/29 09:39:00;;;;;;;6.32;3.05;;;;;;;;;;5052150;28;20028;-79
2022/12/29 09:41:31;;;;;;;8.27;2.30;;;;;;;;;;5046131;28;20037;-78
2022/12/29 09:44:06;;;;;;;5.90;2.08;;;;;;;;;;5040142;28;20044;-77
2022/12/29 09:46:34;;;;;;;4.05;2.63;;;;;;;;;;5052822;28;20041;-77
2022/12/29 09:49:19;;;;;;;8.82;3.05;;;;;;;;;;5045207;28;20020;-78
2022/12/29 09:51:47;;;;;;;3.97;2.53;;;;;;;;;;5053094;28;20052;-77
2022/12/29 09:54:21;;;;;;;7.38;2.35;;;;;;;;;;5048883;28;20164;-77
2022/12/29 09:56:48;;;;;;;6.80;1.90;;;;;;;;;;5044913;28;20025;-77
2022/12/29 09:59:18;;;;;;;3.95;2.15;;;;;;;;;;5041938;28;20479;-77
2022/12/29 10:01:52;;;;;;;6.07;2.22;;;;;;;;;;5054413;28;20033;-78
2022/12/29 10:04:18;;;;;;;5.05;2.33;;;;;;;;;;5056230;28;20035;-78
2022/12/29 10:06:47;;;;;;;5.80;2.10;;;;;;;;;;5044433;28;20111;-77
2022/12/29 10:09:34;;;;;;;5.25;2.30;;;;;;;;;;5044831;28;20433;-77
2022/12/29 10:12:10;;;;;;;6.00;2.17;;;;;;;;;;5021947;28;20431;-77
2022/12/29 10:14:37;;;;;;;4.72;2.13;;;;;;;;;;5050200;28;20029;-76
2022/12/29 10:17:20;;;;;;;3.42;1.95;;;;;;;;;;5053407;28;20047;-77
2022/12/29 10:20:06;;;;;;;5.43;2.53;;;;;;;;;;5043780;28;20041;-77
2022/12/29 10:22:38;;;;;;;4.53;2.00;;;;;;;;;;5043031;28;20387;-78
2022/12/29 10:25:11;;;;;;;6.22;2.22;;;;;;;;;;5043287;28;20539;-77
2022/12/29 10:27:37;;;;;;;6.95;2.80;;;;;;;;;;5046719;28;20041;-77
2022/12/29 10:30:04;;;;;;;9.77;2.60;;;;;;;;;;5051975;28;20057;-79
2022/12/29 10:32:41;;;;;;;7.38;2.90;;;;;;;;;;5046234;28;20029;-77
2022/12/29 10:35:13;;;;;;;7.75;2.63;;;;;;;;;;5044021;28;20140;-78
2022/12/29 10:37:43;;;;;;;7.70;2.42;;;;;;;;;;5044734;28;20387;-78
2022/12/29 10:40:32;;;;;;;5.93;2.20;;;;;;;;;;5037923;28;20032;-77
2022/12/29 10:42:58;;;;;;;4.53;2.00;;;;;;;;;;5037652;28;20037;-77
2022/12/29 10:45:29;;;;;;;7.57;3.03;;;;;;;;;;5041473;28;20127;-79
2022/12/29 10:48:01;;;;;;;7.00;2.17;;;;;;;;;;5045009;28;20021;-78
2022/12/29 10:50:29;;;;;;;11.35;3.50;;;;;;;;;;5046717;28;20094;-77
2022/12/29 10:52:56;;;;;;;14.70;3.03;;;;;;;;;;5046073;28;20454;-79
2022/12/29 10:55:27;;;;;;;9.85;2.92;;;;;;;;;;5046374;28;20513;-77
2022/12/29 10:57:57;;;;;;;10.38;3.05;;;;;;;;;;5044809;28;20471;-78
2022/12/29 11:00:24;;;;;;;4.97;2.00;;;;;;;;;;5039884;28;20040;-77
2022/12/29 11:03:19;;;;;;;4.95;2.22;;;;;;;;;;5051031;28;20029;-77
2022/12/29 11:05:58;;;;;;;6.77;2.40;;;;;;;;;;5038457;28;20106;-78
2022/12/29 11:08:26;;;;;;;5.88;2.13;;;;;;;;;;5047220;28;20021;-78
2022/12/29 11:11:02;;;;;;;4.35;2.20;;;;;;;;;;5043600;28;20037;-78
2022/12/29 11:13:30;;;;;;;3.25;2.00;;;;;;;;;;5055834;28;20038;-78
2022/12/29 11:15:56;;;;;;;3.85;2.00;;;;;;;;;;5039583;28;20049;-78
2022/12/29 11:18:39;;;;;;;3.70;1.65;;;;;;;;;;5048512;28;20083;-78
2022/12/29 11:21:25;;;;;;;2.58;1.83;;;;;;;;;;5044528;28;20087;-78
2022/12/29 11:23:59;;;;;;;4.03;2.55;;;;;;;;;;5043535;28;20394;-77
2022/12/29 11:26:26;;;;;;;2.00;1.65;;;;;;;;;;5044782;28;20037;-78
2022/12/29 11:29:21;;;;;;;4.13;2.40;;;;;;;;;;5049821;28;20064;-78
2022/12/29 11:31:49;;;;;;;3.53;1.83;;;;;;;;;;5044705;28;20130;-78
2022/12/29 11:34:35;;;;;;;2.92;1.60;;;;;;;;;;5044359;28;20036;-77
2022/12/29 11:37:06;;;;;;;1.98;1.88;;;;;;;;;;5051138;28;20372;-78
2022/12/29 11:39:56;;;;;;;3.58;2.28;;;;;;;;;;5053012;28;20032;-77
2022/12/29 11:42:39;;;;;;;4.13;1.92;;;;;;;;;;5046798;28;20441;-77
2022/12/29 11:45:14;;;;;;;4.53;2.20;;;;;;;;;;5049141;28;20025;-78
2022/12/29 11:47:44;;;;;;;4.75;2.63;;;;;;;;;;5049182;28;20053;-78
2022/12/29 11:50:17;;;;;;;5.05;3.25;;;;;;;;;;5050032;28;20079;-78
2022/12/29 11:52:46;;;;;;;3.50;1.90;;;;;;;;;;5055655;28;20021;-78
2022/12/29 11:55:23;;;;;;;4.05;2.28;;;;;;;;;;5053741;28;20029;-80
2022/12/29 11:57:51;;;;;;;4.30;2.05;;;;;;;;;;5056675;28;20028;-80
2022/12/29 12:00:20;;;;;;;5.55;2.20;;;;;;;;;;5061155;28;20021;-78
2022/12/29 12:03:25;;;;;;;3.53;2.22;;;;;;;;;;5047793;28;20135;-78
2022/12/29 12:05:52;;;;;;;2.33;1.52;;;;;;;;;;5049479;28;20514;-78
2022/12/29 12:08:18;;;;;;;3.92;2.15;;;;;;;;;;5048954;28;20509;-79
2022/12/29 12:10:47;;;;;;;2.65;2.45;;;;;;;;;;5042900;28;20093;-79
2022/12/29 12:13:21;;;;;;;3.67;1.77;;;;;;;;;;5044579;28;20036;-79
2022/12/29 12:15:50;;;;;;;5.95;2.53;;;;;;;;;;5048394;28;20033;-78
2022/12/29 12:18:19;;;;;;;4.45;2.38;;;;;;;;;;5047803;28;20013;-78
2022/12/29 12:20:47;;;;;;;4.70;1.90;;;;;;;;;;5055670;28;20017;-79
2022/12/29 12:23:13;;;;;;;4.03;2.08;;;;;;;;;;5060767;28;20056;-78
2022/12/29 12:25:55;;;;;;;2.17;1.77;;;;;;;;;;5059288;28;20022;-79
2022/12/29 12:28:25;;;;;;;5.80;2.53;;;;;;;;;;5051279;28;20041;-77
2022/12/29 12:30:58;;;;;;;7.80;2.78;;;;;;;;;;5048550;28;20036;-78
2022/12/29 12:33:29;;;;;;;6.40;2.30;;;;;;;;;;5046863;28;20033;-80
2022/12/29 12:36:02;;;;;;;5.20;2.53;;;;;;;;;;5048998;28;20028;-78
2022/12/29 12:38:37;;;;;;;5.60;2.47;;;;;;;;;;5050583;28;20056;-79
2022/12/29 12:41:07;;;;;;;3.80;2.28;;;;;;;;;;5045942;28;20025;-78
2022/12/29 12:43:45;;;;;;;4.03;2.60;;;;;;;;;;5060952;28;20021;-78
2022/12/29 12:46:14;;;;;;;7.43;2.70;;;;;;;;;;5056156;28;20029;-78
2022/12/29 12:49:03;;;;;;;8.35;3.15;;;;;;;;;;5046196;28;20045;-78
2022/12/29 12:51:48;;;;;;;3.83;2.30;;;;;;;;;;5055056;28;20025;-78
2022/12/29 12:54:23;;;;;;;4.57;2.15;;;;;;;;;;5054247;28;20032;-78
2022/12/29 12:56:49;;;;;;;;;;;;;;;;;;5055168;28;20032;-78
2022/12/29 12:59:15;;;;;;;;;;;;;;;;;;5060785;28;19908;-80
2022/12/29 13:02:04;;;;;;;7.28;2.63;;;;;;;;;;5064145;28;19915;-79
2022/12/29 13:04:49;;;;;;;6.45;2.50;;;;;;;;;;5012749;28;20036;-78
2022/12/29 13:07:21;;;;;;;5.50;2.70;;;;;;;;;;5051736;28;20553;-77
2022/12/29 13:09:47;;;;;;;4.90;2.65;;;;;;;;;;5051140;28;20024;-78
2022/12/29 13:12:19;;;;;;;4.53;2.55;;;;;;;;;;5052552;28;20053;-77
2022/12/29 13:14:55;;;;;;;7.45;2.67;;;;;;;;;;5052564;28;20022;-77
2022/12/29 13:17:36;;;;;;;3.13;2.30;;;;;;;;;;5051467;28;20048;-79
2022/12/29 13:20:05;;;;;;;4.05;2.25;;;;;;;;;;5051734;28;20025;-79
2022/12/29 13:22:50;;;;;;;4.00;2.40;;;;;;;;;;5053055;28;20142;-78
2022/12/29 13:25:22;;;;;;;3.58;2.03;;;;;;;;;;5048271;28;20304;-80
2022/12/29 13:28:04;;;;;;;4.82;2.15;;;;;;;;;;5050776;28;20049;-77
2022/12/29 13:30:35;;;;;;;6.47;2.50;;;;;;;;;;5039427;28;20025;-78
2022/12/29 13:33:16;;;;;;;4.95;2.40;;;;;;;;;;5045105;28;20031;-78
2022/12/29 13:35:57;;;;;;;3.95;2.00;;;;;;;;;;5047505;28;20078;-78
2022/12/29 13:38:30;;;;;;;6.28;2.72;;;;;;;;;;5048799;28;20056;-79
2022/12/29 13:41:08;;;;;;;3.53;2.28;;;;;;;;;;5046309;28;20029;-78
2022/12/29 13:43:35;;;;;;;4.03;2.40;;;;;;;;;;5047690;28;20040;-79
2022/12/29 13:46:24;;;;;;;4.13;2.47;;;;;;;;;;5049256;28;20493;-79
2022/12/29 13:49:02;;;;;;;4.82;1.98;;;;;;;;;;5039580;28;20059;-77
2022/12/29 13:51:29;;;;;;;4.03;2.63;;;;;;;;;;5046147;28;20029;-79
2022/12/29 13:54:15;;;;;;;2.83;2.00;;;;;;;;;;5052977;28;20036;-78
2022/12/29 13:56:47;;;;;;;4.60;2.20;;;;;;;;;;5057125;28;20051;-79
2022/12/29 13:59:21;;;;;;;3.17;2.10;;;;;;;;;;5053997;28;20036;-78
2022/12/29 14:01:51;;;;;;;4.22;2.30;;;;;;;;;;5057034;28;20515;-77
2022/12/29 14:04:28;;;;;;;2.50;2.17;;;;;;;;;;5055547;28;20024;-79
2022/12/29 14:07:05;;;;;;;2.75;2.08;;;;;;;;;;5055550;28;20084;-77
2022/12/29 14:09:46;;;;;;;5.55;2.30;;;;;;;;;;5057632;28;20026;-77
2022/12/29 14:12:39;;;;;;;3.67;2.03;;;;;;;;;;5063481;28;20024;-76
2022/12/29 14:15:11;;;;;;;2.97;2.20;;;;;;;;;;5058600;28;20142;-77
2022/12/29 14:17:38;;;;;;;4.85;2.20;;;;;;;;;;5062579;28;20017;-77
2022/12/29 14:20:07;;;;;;;3.50;2.22;;;;;;;;;;5064003;28;20536;-78
2022/12/29 14:22:33;;;;;;;3.33;2.55;;;;;;;;;;5055776;28;20029;-79
2022/12/29 14:25:00;;;;;;;5.60;3.35;;;;;;;;;;5064788;28;20368;-78
2022/12/29 14:27:29;;;;;;;4.72;3.03;;;;;;;;;;5058999;28;20048;-78
2022/12/29 14:29:55;;;;;;;5.53;3.15;;;;;;;;;;5056856;28;20028;-78
2022/12/29 14:32:21;;;;;;;5.55;2.75;;;;;;;;;;5053646;28;20163;-77
2022/12/29 14:34:48;;;;;;;4.93;2.10;;;;;;;;;;5054762;28;20025;-78
2022/12/29 14:37:27;;;;;;;3.83;2.17;;;;;;;;;;5058783;28;20475;-77
2022/12/29 14:40:12;;;;;;;12.15;7.45;;;;;;;;;;5059023;28;20439;-78
2022/12/29 14:42:40;;;;;;;8.00;6.50;;;;;;;;;;5061305;28;20122;-78
2022/12/29 14:45:07;;;;;;;6.63;4.35;;;;;;;;;;5050253;28;20057;-78
2022/12/29 14:47:35;;;;;;;142.63;67.88;;;;;;;;;;5052850;28;20017;-79
2022/12/29 14:50:27;;;;;;;126.75;61.00;;;;;;;;;;5050618;28;20056;-77
2022/12/29 14:52:57;;;;;;;19.83;10.32;;;;;;;;;;5054349;28;20060;-78
2022/12/29 14:55:35;;;;;;;14.15;7.20;;;;;;;;;;5051932;28;20059;-78
2022/12/29 14:58:02;;;;;;;156.35;75.18;;;;;;;;;;5049843;28;20037;-78
2022/12/29 15:00:31;;;;;;;64.70;30.45;;;;;;;;;;5055992;28;20048;-77
2022/12/29 15:03:04;;;;;;;144.63;69.60;;;;;;;;;;5055980;28;20059;-78
2022/12/29 15:05:51;;;;;;;161.75;78.00;;;;;;;;;;5049717;28;20032;-79
2022/12/29 15:08:18;;;;;;;168.77;84.25;;;;;;;;;;5051872;28;20107;-79
2022/12/29 15:10:48;;;;;;;107.28;56.70;;;;;;;;;;5050775;28;20442;-76
2022/12/29 15:13:21;;;;;;;185.55;95.97;;;;;;;;;;5049957;28;20036;-79
2022/12/29 15:15:48;;;;;;;25.40;16.40;;;;;;;;;;5052451;28;20061;-78
2022/12/29 15:18:24;;;;;;;37.65;24.17;;;;;;;;;;5052034;28;20052;-77
2022/12/29 15:20:55;;;;;;;14.95;9.10;;;;;;;;;;5049531;28;20550;-77
2022/12/29 15:23:22;;;;;;;20.33;12.77;;;;;;;;;;5044041;28;20079;-78
2022/12/29 15:25:50;;;;;;;8.68;5.45;;;;;;;;;;5049513;28;20025;-79
2022/12/29 15:28:17;;;;;;;6.65;4.55;;;;;;;;;;5050904;28;20045;-78
2022/12/29 15:30:57;;;;;;;5.95;4.20;;;;;;;;;;5037028;28;20408;-79
2022/12/29 15:33:27;;;;;;;6.10;4.32;;;;;;;;;;5051499;28;20048;-81
2022/12/29 15:35:53;;;;;;;11.70;5.43;;;;;;;;;;5055287;28;20020;-77
2022/12/29 15:38:24;;;;;;;5.03;3.70;;;;;;;;;;5052209;28;20112;-77
2022/12/29 15:40:55;;;;;;;4.13;3.00;;;;;;;;;;5058139;28;20029;-77